createdAt,value
2018-08-03T00:00:11.434Z,100737.78
2018-08-03T00:05:15.018Z,100730.72
2018-08-03T00:10:18.578Z,100731.53
2018-08-03T00:15:22.075Z,100728.27
2018-08-03T00:20:25.705Z,100724.72
2018-08-03T00:25:29.303Z,100730.70
2018-08-03T00:30:32.987Z,100733.70
2018-08-03T00:35:36.503Z,100730.42
2018-08-03T00:40:40.057Z,100733.16
2018-08-03T00:45:43.568Z,100742.92
2018-08-03T00:50:48.461Z,100752.34
2018-08-03T00:55:52.220Z,100752.30
2018-08-03T01:00:55.857Z,100753.95
2018-08-03T01:05:59.338Z,100755.04
2018-08-03T01:11:03.306Z,100757.12
2018-08-03T01:16:07.426Z,100757.58
2018-08-03T01:21:11.019Z,100748.66
2018-08-03T01:26:14.726Z,100743.77
2018-08-03T01:31:18.223Z,100739.45
2018-08-03T01:36:21.876Z,100744.16
2018-08-03T01:41:26.010Z,100736.23
2018-08-03T01:46:29.692Z,100740.17
2018-08-03T01:51:33.227Z,100749.65
2018-08-03T01:56:36.849Z,100753.23
2018-08-03T02:01:40.384Z,100748.63
2018-08-03T02:06:43.967Z,100741.95
2018-08-03T02:11:47.474Z,100742.66
2018-08-03T02:16:51.406Z,100736.96
2018-08-03T02:21:55.146Z,100737.34
2018-08-03T02:26:58.731Z,100736.83
2018-08-03T02:32:02.514Z,100743.61
2018-08-03T02:37:06.486Z,100738.89
2018-08-03T02:42:10.002Z,100743.59
2018-08-03T02:47:13.673Z,100747.30
2018-08-03T02:52:17.165Z,100759.67
2018-08-03T02:57:20.830Z,100757.98
2018-08-03T03:02:24.331Z,100759.68
2018-08-03T03:07:27.844Z,100752.53
2018-08-03T03:12:31.430Z,100769.56
2018-08-03T03:17:35.137Z,100776.58
2018-08-03T03:22:38.650Z,100781.73
2018-08-03T03:27:42.237Z,100780.86
2018-08-03T03:32:46.469Z,100782.87
2018-08-03T03:54:21.669Z,100795.05
2018-08-03T03:59:27.766Z,100799.03
2018-08-03T04:04:34.797Z,100802.23
2018-08-03T04:09:39.365Z,100796.86
2018-08-03T04:14:43.813Z,100805.12
2018-08-03T04:19:47.516Z,100801.88
2018-08-03T04:24:51.214Z,100795.36
2018-08-03T04:29:55.202Z,100787.23
2018-08-03T04:34:59.170Z,100792.16
2018-08-03T04:56:25.910Z,100802.95
2018-08-03T05:01:29.456Z,100804.36
2018-08-03T05:06:33.157Z,100804.67
2018-08-03T05:11:36.721Z,100803.92
2018-08-03T05:16:41.064Z,100808.88
2018-08-03T05:21:44.661Z,100814.64
2018-08-03T05:26:48.221Z,100820.67
2018-08-03T05:31:51.904Z,100817.17
2018-08-03T05:36:55.596Z,100819.38
2018-08-03T05:41:59.206Z,100826.46
2018-08-03T05:47:03.025Z,100827.84
2018-08-03T05:52:06.670Z,100833.59
2018-08-03T05:57:10.190Z,100828.18
2018-08-03T06:02:14.895Z,100829.88
2018-08-03T06:07:18.701Z,100833.16
2018-08-03T06:12:22.317Z,100838.08
2018-08-03T06:17:26.421Z,100842.98
2018-08-03T06:22:30.418Z,100842.16
2018-08-03T06:27:34.394Z,100839.70
2018-08-03T06:32:38.526Z,100835.64
2018-08-03T06:37:43.170Z,100841.11
2018-08-03T06:42:46.692Z,100834.06
2018-08-03T06:47:50.282Z,100831.37
2018-08-03T06:52:54.265Z,100823.48
2018-08-03T06:57:57.793Z,100829.17
2018-08-03T07:03:01.303Z,100829.42
2018-08-03T07:08:05.035Z,100834.31
2018-08-03T07:13:08.618Z,100833.23
2018-08-03T07:18:12.202Z,100841.92
2018-08-03T07:23:15.751Z,100836.20
2018-08-03T07:28:19.958Z,100836.67
2018-08-03T07:33:23.518Z,100832.81
2018-08-03T07:38:27.198Z,100839.88
2018-08-03T07:43:31.732Z,100843.35
2018-08-03T07:48:36.322Z,100839.80
2018-08-03T07:53:40.614Z,100836.15
2018-08-03T07:58:45.625Z,100828.23
2018-08-03T08:03:49.947Z,100826.27
2018-08-03T08:08:54.512Z,100832.75
2018-08-03T08:13:59.022Z,100823.44
2018-08-03T08:19:04.377Z,100819.53
2018-08-03T08:24:08.621Z,100816.48
2018-08-03T08:29:13.487Z,100827.80
2018-08-03T08:34:21.771Z,100818.40
2018-08-03T08:39:26.410Z,100811.90
2018-08-03T08:44:31.003Z,100808.04
2018-08-03T08:49:35.539Z,100802.91
2018-08-03T08:54:40.332Z,100802.49
2018-08-03T08:59:45.447Z,100795.51
2018-08-03T09:04:49.017Z,100797.50
2018-08-03T09:09:52.763Z,100796.78
2018-08-03T09:14:56.638Z,100799.61
2018-08-03T09:20:06.288Z,100791.83
2018-08-03T09:25:10.307Z,100789.64
2018-08-03T09:30:14.121Z,100786.13
2018-08-03T09:35:17.918Z,100781.03
2018-08-03T09:40:21.487Z,100776.73
2018-08-03T09:45:25.132Z,100769.41
2018-08-03T09:50:29.019Z,100764.73
2018-08-03T09:55:33.210Z,100770.52
2018-08-03T10:00:42.504Z,100759.67
2018-08-03T10:05:46.453Z,100751.06
2018-08-03T10:10:50.204Z,100754.07
2018-08-03T10:15:54.203Z,100746.51
2018-08-03T10:20:59.400Z,100750.50
2018-08-03T10:26:03.330Z,100739.09
2018-08-03T10:31:07.998Z,100736.77
2018-08-03T10:36:12.148Z,100728.11
2018-08-03T10:41:16.220Z,100723.88
2018-08-03T10:46:21.167Z,100718.11
2018-08-03T10:51:25.662Z,100710.50
2018-08-03T10:56:29.805Z,100706.92
2018-08-03T11:01:34.246Z,100701.41
2018-08-03T11:06:38.144Z,100695.98
2018-08-03T11:11:42.398Z,100691.23
2018-08-03T11:16:46.166Z,100690.09
2018-08-03T11:21:50.458Z,100688.82
2018-08-03T11:26:54.302Z,100682.41
2018-08-03T11:31:58.435Z,100675.58
2018-08-03T11:37:02.560Z,100674.11
2018-08-03T11:42:07.535Z,100670.33
2018-08-03T11:47:12.174Z,100654.81
2018-08-03T11:52:16.553Z,100657.59
2018-08-03T11:57:20.763Z,100640.92
2018-08-03T12:02:24.582Z,100640.73
2018-08-03T12:07:29.380Z,100629.13
2018-08-03T12:12:33.996Z,100632.88
2018-08-03T12:17:37.535Z,100625.08
2018-08-03T12:22:41.855Z,100617.04
2018-08-03T12:27:45.787Z,100603.37
2018-08-03T12:32:49.916Z,100605.41
2018-08-03T12:37:53.837Z,100601.11
2018-08-03T12:42:57.954Z,100590.39
2018-08-03T12:48:02.131Z,100577.50
2018-08-03T12:53:06.721Z,100577.98
2018-08-03T12:58:11.916Z,100575.23
2018-08-03T13:03:15.990Z,100569.51
2018-08-03T13:08:21.028Z,100562.04
2018-08-03T13:13:24.870Z,100559.59
2018-08-03T13:18:29.881Z,100558.30
2018-08-03T13:23:33.801Z,100545.56
2018-08-03T13:28:38.637Z,100539.42
2018-08-03T13:33:42.648Z,100537.19
2018-08-03T13:38:47.945Z,100535.70
2018-08-03T13:43:52.333Z,100524.92
2018-08-03T13:48:56.302Z,100518.13
2018-08-03T13:54:01.515Z,100504.97
2018-08-03T13:59:06.901Z,100506.42
2018-08-03T14:04:11.614Z,100501.31
2018-08-03T14:09:16.275Z,100503.12
2018-08-03T14:14:22.176Z,100503.49
2018-08-03T14:19:26.773Z,100493.52
2018-08-03T14:24:31.858Z,100491.02
2018-08-03T14:29:36.995Z,100485.46
2018-08-03T14:34:41.258Z,100477.00
2018-08-03T14:39:45.534Z,100469.22
2018-08-03T14:44:53.175Z,100467.67
2018-08-03T14:49:57.722Z,100462.89
2018-08-03T14:55:04.824Z,100450.63
2018-08-03T15:00:08.726Z,100449.55
2018-08-03T15:05:13.313Z,100450.24
2018-08-03T15:10:17.886Z,100444.61
2018-08-03T15:15:22.295Z,100436.87
2018-08-03T15:20:27.256Z,100427.59
2018-08-03T15:25:31.713Z,100428.44
2018-08-03T15:30:35.971Z,100420.42
2018-08-03T15:35:41.180Z,100425.09
2018-08-03T15:40:45.733Z,100409.64
2018-08-03T15:45:50.079Z,100405.88
2018-08-03T15:50:56.211Z,100404.08
2018-08-03T15:56:00.287Z,100403.99
2018-08-03T16:01:04.617Z,100393.39
2018-08-03T16:06:08.902Z,100393.80
2018-08-03T16:11:13.628Z,100392.70
2018-08-03T16:16:18.172Z,100385.10
2018-08-03T16:21:21.927Z,100388.97
2018-08-03T16:26:26.050Z,100376.59
2018-08-03T16:31:29.845Z,100372.19
2018-08-03T16:36:33.852Z,100368.73
2018-08-03T16:41:38.006Z,100368.27
2018-08-03T16:46:43.755Z,100364.45
2018-08-03T16:51:49.200Z,100357.62
2018-08-03T16:56:53.485Z,100364.11
2018-08-03T17:01:57.968Z,100361.97
2018-08-03T17:07:02.186Z,100358.05
2018-08-03T17:12:06.289Z,100354.70
2018-08-03T17:17:10.358Z,100359.31
2018-08-03T17:22:14.455Z,100346.06
2018-08-03T17:27:18.984Z,100345.20
2018-08-03T17:32:23.123Z,100341.73
2018-08-03T17:37:27.052Z,100348.25
2018-08-03T17:42:31.818Z,100348.72
2018-08-03T17:47:35.827Z,100354.67
2018-08-03T17:52:39.758Z,100358.73
2018-08-03T17:57:43.926Z,100359.98
2018-08-03T18:02:48.161Z,100353.92
2018-08-03T18:07:52.290Z,100359.44
2018-08-03T18:12:56.757Z,100367.27
2018-08-03T18:18:00.796Z,100364.62
2018-08-03T18:23:04.942Z,100367.42
2018-08-03T18:28:08.883Z,100365.65
2018-08-03T18:33:12.999Z,100367.69
2018-08-03T18:38:17.092Z,100374.70
2018-08-03T18:43:21.986Z,100371.51
2018-08-03T18:48:25.962Z,100372.55
2018-08-03T18:53:30.722Z,100363.08
2018-08-03T18:58:34.670Z,100367.11
2018-08-03T19:03:39.354Z,100370.69
2018-08-03T19:08:43.595Z,100378.01
2018-08-03T19:13:47.893Z,100383.53
2018-08-03T19:18:51.919Z,100386.37
2018-08-03T19:23:55.763Z,100391.43
2018-08-03T19:29:00.126Z,100393.44
2018-08-03T19:34:04.420Z,100385.73
2018-08-03T19:39:09.926Z,100387.55
2018-08-03T19:44:14.464Z,100383.59
2018-08-03T19:49:17.965Z,100385.55
2018-08-03T19:54:22.746Z,100385.19
2018-08-03T19:59:26.971Z,100387.83
2018-08-03T20:04:30.853Z,100392.25
2018-08-03T20:09:34.365Z,100392.25
2018-08-03T20:14:38.028Z,100396.54
2018-08-03T20:19:41.661Z,100397.02
2018-08-03T20:24:46.983Z,100400.05
2018-08-03T20:29:51.129Z,100406.02
2018-08-03T20:34:54.741Z,100402.34
2018-08-03T20:39:58.325Z,100396.42
2018-08-03T20:45:02.617Z,100397.56
2018-08-03T20:50:06.392Z,100399.91
2018-08-03T20:55:10.556Z,100400.67
2018-08-03T21:00:14.302Z,100401.36
2018-08-03T21:05:17.981Z,100405.90
2018-08-03T21:10:22.035Z,100409.72
2018-08-03T21:15:25.985Z,100411.17
2018-08-03T21:20:29.908Z,100412.84
2018-08-03T21:25:33.656Z,100412.36
2018-08-03T21:30:37.259Z,100412.36
2018-08-03T21:35:41.102Z,100415.70
2018-08-03T21:40:45.421Z,100418.45
2018-08-03T21:45:49.148Z,100417.34
2018-08-03T21:50:52.942Z,100417.90
2018-08-03T21:55:56.625Z,100413.09
2018-08-03T22:01:00.671Z,100410.67
2018-08-03T22:06:04.464Z,100416.91
2018-08-03T22:11:08.078Z,100416.18
2018-08-03T22:16:11.703Z,100425.27
2018-08-03T22:21:15.233Z,100424.63
2018-08-03T22:26:18.774Z,100423.02
2018-08-03T22:31:22.349Z,100417.88
2018-08-03T22:36:25.921Z,100407.89
2018-08-03T22:41:29.486Z,100414.82
2018-08-03T22:46:33.680Z,100421.75
2018-08-03T22:51:37.269Z,100422.13
2018-08-03T22:56:41.167Z,100417.28
2018-08-03T23:01:44.770Z,100417.90
2018-08-03T23:06:48.674Z,100409.22
2018-08-03T23:11:52.529Z,100406.75
2018-08-03T23:16:56.523Z,100404.34
2018-08-03T23:22:00.442Z,100404.13
2018-08-03T23:27:04.554Z,100404.48
2018-08-03T23:32:08.259Z,100403.97
2018-08-03T23:37:12.213Z,100404.07
2018-08-03T23:42:16.887Z,100394.78
2018-08-03T23:47:21.101Z,100396.75
2018-08-03T23:52:25.109Z,100389.19
2018-08-03T23:57:29.208Z,100378.69
